Sanibel, FL

8:59 AM EST on December 26, 2014 (GMT -0500)
IWA on Sanibel Island | Change Station
CLOSE
Current Station
Personal Weather Station
Location: Sanibel, FL
Elevation: 7 ft
Nearby Weather Stations

Elev 7 ft 26.44 °N, 82.11 °W | Updated 4 minutes ago

Overcast
Overcast
61.1 °F
Feels Like 61.1 °F
N
7.0
Wind Variable Wind from NNE
Gusts 7.0 mph

Today
High -- | Low -- °F
--% Chance of Precip.
Yesterday
High -- | Low -- °F
Precip. -- in
7:14 AM 5:43 PM
Waxing Crescent, 26% visible
Pressure 30.21 in
Visibility 10.0 miles
Clouds Mostly Cloudy 2300 ft
Overcast 3000 ft
Dew Point 54 °F
Humidity 78%
Rainfall 0.00 in
Snow Depth Not available.
UV 0 out of 12
Pollen 7.00 out of 12
Air Quality Not available.
Flu Activity Not available.
METAR KFMY 261353Z 06006KT 10SM BKN023 OVC030 16/11 A3020 RMK AO2 SLP229 T01560111

More Conditions Fewer Conditions

Pressure 30.21 in
Visibility 10.0 miles
Clouds Mostly Cloudy 2300 ft
Overcast 3000 ft
Dew Point 54 °F
Humidity 78%
Rainfall 0.00 in
Snow Depth Not available.
UV 0 out of 12
Pollen 7.00 out of 12
Air Quality Not available.
Flu Activity Not available.
METAR KFMY 261353Z 06006KT 10SM BKN023 OVC030 16/11 A3020 RMK AO2 SLP229 T01560111

More Conditions Fewer Conditions

10-Day Weather Forecast

Almanac

Astronomy

Dec. 26, 2014 Rise Set
Actual Time
Civil Twilight
Nautical Twilight
Astronomical Twilight
Moon
Length of Visible Light
Length of Day
Tomorrow will be .
, % of the Moon is Illuminated

Today's Extremes

State Highs State Lows

Community

WunderPhotos

Upload Photos

1,780,593 photos uploaded!

WunderBlogs® & News

Nearby

Air Quality

  Air Quality AQ Index Pollutant
Not available.

Snow Depth

Station Depth Elevation

Earthquake Activity

City Distance Mag. Time & Date
Minimum magnitude displayed is 2.5.

Coastal Water Temperatures

Place Temperature

Nearby Weather Stations